Avioradar koristi kolačiće da bi Vam omogućio jednostavnije i ugodnije korištenje stranice. 

AVIORADAR - Hrvatski zrakoplovni portal

METAR & TAF

[Source: ADDS]
METAR
LDZA 291400Z 02005KT 340V060 9999 FEW020 06/M01 Q1002 NOSIG =
LDZA 291125Z 2912/3012 VRB02KT 9999 FEW008 SCT030 TX05/3011Z TNM05/3004Z PROB40 2920/3009 3000 BR PROB30 3000/3008 0300 FZFG VV001 LDSP 291400Z 06008KT 030V090 9999 FEW035 SCT040 07/03 Q0996 TEMPO RA =
LDSP 291125Z 2912/3012 02006KT 9999 SCT025 BKN040 BKN060 TX09/2913ZTN03/3006Z PROB30 TEMPO 2912/2915 32012KT TSRA FEW025CB BKN040 BKN060 PROB40 TEMPO 2915/2918 RA BECMG 2915/2917 04008KT TEMPO 2919/3001 04012KT BECMG 3002/3004 32008KT LDDU 291400Z 19015G25KT 150V220 9999 -RA FEW025 SCT047 BKN056 11/06 Q0997 TEMPO TSRA SCT030CB BKN045 =
AMD LDDU 291131Z 2912/3012 20012KT 9999 FEW030 BKN040 TX13/2912Z TN05/3005Z PROB40 TEMPO 2912/2922 4000 TSRA SCT030CB BKN040 BECMG 2918/2920 02008KT BECMG 2922/3000 02022G35KT TEMPO 2923/3006 02030G45KT PROB40 TEMPO 3004/3007 VRB18G35KT BECMG 3009/3011 02010KT LDPL 291400Z 06012KT CAVOK 08/M01 Q0999 NOSIG =
LDPL 291125Z 2912/3012 06012KT 9999 SCT030 TX09/2912Z TNM02/3004Z BECMG 2916/2918 01006KT LDZD 291400Z 05012KT 9999 SCT050 08/M00 Q0997 NOSIG =
LDZD 291125Z 2912/3012 06015KT 9999 FEW040 BKN070 TX09/2913Z TNM02/3006Z PROB30 TEMPO 2912/2914 SHRA FEW025TCU SCT040 BKN070 PROB30 TEMPO 2914/2919 05015G25KT BECMG 2918/2920 06008KT BECMG 2921/2923 VRB02KT LDRI 291400Z 06012G36KT 010V120 CAVOK 07/M06 Q0999 =
LDRI 291125Z 2912/3012 06015G30KT 9999 SCT030 TX08/2912Z TNM01/3003Z PROB30 TEMPO 2912/2915 06025G45KT BECMG 2915/2917 VRB05KT PROB30 TEMPO 2915/2923 32010KT LDOS 291400Z 32010KT CAVOK 04/01 Q1001 =
LDOS 291125Z 2912/3012 29010KT 9999 SCT010 BKN030 TX06/2913Z TNM02/3005Z PROB30 TEMPO 2912/2918 BKN007
TAF
LDZA 291125Z 2912/3012 VRB02KT 9999 FEW008 SCT030 TX05/3011Z TNM05/3004Z PROB40 2920/3009 3000 BR PROB30 3000/3008 0300 FZFG VV001 =
LDSP 291125Z 2912/3012 02006KT 9999 SCT025 BKN040 BKN060 TX09/2913ZTN03/3006Z PROB30 TEMPO 2912/2915 32012KT TSRA FEW025CB BKN040 BKN060 PROB40 TEMPO 2915/2918 RA BECMG 2915/2917 04008KT TEMPO 2919/3001 04012KT BECMG 3002/3004 32008KT =
AMD LDDU 291131Z 2912/3012 20012KT 9999 FEW030 BKN040 TX13/2912Z TN05/3005Z PROB40 TEMPO 2912/2922 4000 TSRA SCT030CB BKN040 BECMG 2918/2920 02008KT BECMG 2922/3000 02022G35KT TEMPO 2923/3006 02030G45KT PROB40 TEMPO 3004/3007 VRB18G35KT BECMG 3009/3011 02010KT =
LDPL 291125Z 2912/3012 06012KT 9999 SCT030 TX09/2912Z TNM02/3004Z BECMG 2916/2918 01006KT =
LDZD 291125Z 2912/3012 06015KT 9999 FEW040 BKN070 TX09/2913Z TNM02/3006Z PROB30 TEMPO 2912/2914 SHRA FEW025TCU SCT040 BKN070 PROB30 TEMPO 2914/2919 05015G25KT BECMG 2918/2920 06008KT BECMG 2921/2923 VRB02KT =
LDRI 291125Z 2912/3012 06015G30KT 9999 SCT030 TX08/2912Z TNM01/3003Z PROB30 TEMPO 2912/2915 06025G45KT BECMG 2915/2917 VRB05KT PROB30 TEMPO 2915/2923 32010KT =
LDOS 291125Z 2912/3012 29010KT 9999 SCT010 BKN030 TX06/2913Z TNM02/3005Z PROB30 TEMPO 2912/2918 BKN007 =
SR / SS: 06:14 / 15:13 UTC (Zagreb 2021-11-29)